createdAt,value
2022-12-25T00:00:57.174Z,60.17
2022-12-25T00:03:26.322Z,59.85
2022-12-25T00:05:54.088Z,63.20
2022-12-25T00:08:21.712Z,60.80
2022-12-25T00:10:58.109Z,56.78
2022-12-25T00:13:25.832Z,61.97
2022-12-25T00:15:53.597Z,63.97
2022-12-25T00:18:21.410Z,63.40
2022-12-25T00:20:59.127Z,61.50
2022-12-25T00:23:26.925Z,58.83
2022-12-25T00:25:54.754Z,62.03
2022-12-25T00:28:23.074Z,62.47
2022-12-25T00:30:50.881Z,61.53
2022-12-25T00:33:18.563Z,57.40
2022-12-25T00:35:59.487Z,64.65
2022-12-25T00:38:27.483Z,61.72
2022-12-25T00:40:55.257Z,60.65
2022-12-25T00:43:22.939Z,61.15
2022-12-25T00:45:58.345Z,57.08
2022-12-25T00:48:26.529Z,56.92
2022-12-25T00:50:55.281Z,60.63
2022-12-25T00:53:24.839Z,67.90
2022-12-25T00:55:53.502Z,64.45
2022-12-25T00:58:21.306Z,66.22
2022-12-25T01:00:49.907Z,63.90
2022-12-25T01:03:18.118Z,60.77
2022-12-25T01:05:46.008Z,65.60
2022-12-25T01:08:13.558Z,63.15
2022-12-25T01:10:41.491Z,61.90
2022-12-25T01:13:09.109Z,61.50
2022-12-25T01:15:37.914Z,61.10
2022-12-25T01:18:07.874Z,62.72
2022-12-25T01:20:36.349Z,60.40
2022-12-25T01:23:03.999Z,62.72
2022-12-25T01:25:31.658Z,62.33
2022-12-25T01:28:00.634Z,59.40
2022-12-25T01:30:28.319Z,58.40
2022-12-25T01:32:55.861Z,59.83
2022-12-25T01:35:23.429Z,61.72
2022-12-25T01:37:51.481Z,62.35
2022-12-25T01:40:19.279Z,62.97
2022-12-25T01:42:46.908Z,60.10
2022-12-25T01:45:37.630Z,64.95
2022-12-25T01:48:08.468Z,61.08
2022-12-25T01:50:37.360Z,64.07
2022-12-25T01:53:05.402Z,63.60
2022-12-25T01:55:33.846Z,63.85
2022-12-25T01:58:01.730Z,60.00
2022-12-25T02:00:29.338Z,62.72
2022-12-25T02:02:58.567Z,65.70
2022-12-25T02:05:28.540Z,62.60
2022-12-25T02:07:56.863Z,67.55
2022-12-25T02:10:24.742Z,65.95
2022-12-25T02:12:52.445Z,64.78
2022-12-25T02:15:21.680Z,72.78
2022-12-25T02:17:56.668Z,74.25
2022-12-25T02:20:41.053Z,65.53
2022-12-25T02:23:29.946Z,70.70
2022-12-25T02:26:12.188Z,68.28
2022-12-25T02:28:46.066Z,67.83
2022-12-25T02:31:17.417Z,64.20
2022-12-25T02:34:04.066Z,67.78
2022-12-25T02:36:36.563Z,61.65
2022-12-25T02:39:23.465Z,59.38
2022-12-25T02:41:54.266Z,56.80
2022-12-25T02:44:42.428Z,59.78
2022-12-25T02:47:28.400Z,54.42
2022-12-25T02:50:15.843Z,53.25
2022-12-25T02:53:02.192Z,59.63
2022-12-25T02:55:51.222Z,58.17
2022-12-25T02:58:38.592Z,63.92
2022-12-25T03:01:27.643Z,56.88
2022-12-25T03:04:14.756Z,53.65
2022-12-25T03:06:46.674Z,58.13
2022-12-25T03:09:35.000Z,56.88
2022-12-25T03:12:05.799Z,48.88
2022-12-25T03:14:51.081Z,55.60
2022-12-25T03:17:20.018Z,58.67
2022-12-25T03:20:05.322Z,58.07
2022-12-25T03:22:51.205Z,50.85
2022-12-25T03:25:36.955Z,54.95
2022-12-25T03:28:06.268Z,54.70
2022-12-25T03:30:55.913Z,54.70
2022-12-25T03:33:46.936Z,51.00
2022-12-25T03:36:18.230Z,54.15
2022-12-25T03:39:07.277Z,62.22
2022-12-25T03:41:56.635Z,54.78
2022-12-25T03:44:56.539Z,64.00
2022-12-25T03:47:45.065Z,63.85
2022-12-25T03:50:35.436Z,62.67
2022-12-25T03:53:23.380Z,69.38
2022-12-25T03:56:08.681Z,63.25
2022-12-25T03:58:54.128Z,63.50
2022-12-25T04:01:39.294Z,62.30
2022-12-25T04:04:24.613Z,60.67
2022-12-25T04:07:11.440Z,61.53
2022-12-25T04:09:56.813Z,60.00
2022-12-25T04:12:42.216Z,59.72
2022-12-25T04:15:33.938Z,58.50
2022-12-25T04:18:19.187Z,58.55
2022-12-25T04:21:04.203Z,56.17
2022-12-25T04:23:50.694Z,56.38
2022-12-25T04:26:35.677Z,56.35
2022-12-25T04:29:20.871Z,65.82
2022-12-25T04:32:06.098Z,64.33
2022-12-25T04:34:51.397Z,63.83
2022-12-25T04:37:19.350Z,64.25
2022-12-25T04:39:48.311Z,62.72
2022-12-25T04:42:16.652Z,63.90
2022-12-25T04:44:44.248Z,59.80
2022-12-25T04:47:11.990Z,64.68
2022-12-25T04:49:39.643Z,64.40
2022-12-25T04:52:07.215Z,66.55
2022-12-25T04:54:34.789Z,67.90
2022-12-25T04:57:03.719Z,60.83
2022-12-25T04:59:31.317Z,67.20
2022-12-25T05:01:58.996Z,59.35
2022-12-25T05:04:26.632Z,63.00
2022-12-25T05:06:54.230Z,63.30
2022-12-25T05:09:21.880Z,62.08
2022-12-25T05:11:49.498Z,63.17
2022-12-25T05:14:18.626Z,59.85
2022-12-25T05:16:46.344Z,64.20
2022-12-25T05:19:13.925Z,63.13
2022-12-25T05:21:41.526Z,64.85
2022-12-25T05:24:09.168Z,65.00
2022-12-25T05:26:36.738Z,66.50
2022-12-25T05:29:04.281Z,62.28
2022-12-25T05:31:33.267Z,64.93
2022-12-25T05:34:00.958Z,64.57
2022-12-25T05:36:29.235Z,69.00
2022-12-25T05:38:56.818Z,65.18
2022-12-25T05:41:26.806Z,64.05
2022-12-25T05:43:56.625Z,60.88
2022-12-25T05:46:24.269Z,62.80
2022-12-25T05:48:53.164Z,63.45
2022-12-25T05:51:21.059Z,59.75
2022-12-25T05:53:48.765Z,61.63
2022-12-25T05:56:16.373Z,61.28
2022-12-25T05:58:44.232Z,68.07
2022-12-25T06:01:12.835Z,57.42
2022-12-25T06:03:40.575Z,62.00
2022-12-25T06:06:10.045Z,60.85
2022-12-25T06:08:37.687Z,60.57
2022-12-25T06:11:06.274Z,63.67
2022-12-25T06:13:34.441Z,62.08
2022-12-25T06:16:04.828Z,66.13
2022-12-25T06:18:32.595Z,60.10
2022-12-25T06:21:00.131Z,66.32
2022-12-25T06:23:29.118Z,62.65
2022-12-25T06:25:56.707Z,62.33
2022-12-25T06:28:24.497Z,67.93
2022-12-25T06:30:52.285Z,65.72
2022-12-25T06:33:19.879Z,67.95
2022-12-25T06:35:47.518Z,63.95
2022-12-25T06:38:15.094Z,63.42
2022-12-25T06:40:43.989Z,67.78
2022-12-25T06:43:11.629Z,68.53
2022-12-25T06:45:39.234Z,69.68
2022-12-25T06:48:07.012Z,68.22
2022-12-25T06:50:34.585Z,72.07
2022-12-25T06:53:02.221Z,69.10
2022-12-25T06:55:29.891Z,66.55
2022-12-25T06:57:58.989Z,76.13
2022-12-25T07:00:26.685Z,74.18
2022-12-25T07:02:54.403Z,77.22
2022-12-25T07:05:22.211Z,77.47
2022-12-25T07:07:49.804Z,77.32
2022-12-25T07:10:17.573Z,77.53
2022-12-25T07:12:45.165Z,83.93
2022-12-25T07:15:14.115Z,78.55
2022-12-25T07:17:41.699Z,75.93
2022-12-25T07:20:10.296Z,77.32
2022-12-25T07:22:37.916Z,74.65
2022-12-25T07:25:07.565Z,75.40
2022-12-25T07:27:35.328Z,72.22
2022-12-25T07:30:03.030Z,69.82
2022-12-25T07:32:33.091Z,72.78
2022-12-25T07:35:00.719Z,70.88
2022-12-25T07:37:28.324Z,76.20
2022-12-25T07:39:55.872Z,71.23
2022-12-25T07:42:25.312Z,69.72
2022-12-25T07:44:53.119Z,72.68
2022-12-25T07:47:20.661Z,68.32
2022-12-25T07:49:49.599Z,70.63
2022-12-25T07:52:17.157Z,69.67
2022-12-25T07:54:44.759Z,67.90
2022-12-25T07:57:12.378Z,63.53
2022-12-25T07:59:39.963Z,65.75
2022-12-25T08:02:07.901Z,62.60
2022-12-25T08:04:35.630Z,66.75
2022-12-25T08:07:04.597Z,61.27
2022-12-25T08:09:32.140Z,68.82
2022-12-25T08:11:59.674Z,65.72
2022-12-25T08:14:27.589Z,64.67
2022-12-25T08:16:55.242Z,64.20
2022-12-25T08:19:22.887Z,65.15
2022-12-25T08:21:50.491Z,68.38
2022-12-25T08:24:19.401Z,64.13
2022-12-25T08:26:47.037Z,65.00
2022-12-25T08:29:14.739Z,65.45
2022-12-25T08:31:46.319Z,63.00
2022-12-25T08:34:14.737Z,65.03
2022-12-25T08:36:42.485Z,62.40
2022-12-25T08:39:10.080Z,63.20
2022-12-25T08:41:39.080Z,62.75
2022-12-25T08:44:07.317Z,64.68
2022-12-25T08:46:35.117Z,60.00
2022-12-25T08:49:02.890Z,58.78
2022-12-25T08:51:30.483Z,61.95
2022-12-25T08:54:00.759Z,61.13
2022-12-25T08:56:28.677Z,65.00
2022-12-25T08:58:57.665Z,62.33
2022-12-25T09:01:25.412Z,63.35
2022-12-25T09:03:53.106Z,65.70
2022-12-25T09:06:20.733Z,65.22
2022-12-25T09:08:49.827Z,63.22
2022-12-25T09:11:18.820Z,64.47
2022-12-25T09:13:47.161Z,64.40
2022-12-25T09:16:18.732Z,67.20
2022-12-25T09:18:46.419Z,66.50
2022-12-25T09:21:15.235Z,69.05
2022-12-25T09:23:43.342Z,66.22
2022-12-25T09:26:13.902Z,67.13
2022-12-25T09:28:48.462Z,67.23
2022-12-25T09:31:19.885Z,67.80
2022-12-25T09:33:47.647Z,67.18
2022-12-25T09:36:15.344Z,64.57
2022-12-25T09:38:42.979Z,64.68
2022-12-25T09:41:15.984Z,63.42
2022-12-25T09:43:48.243Z,63.40
2022-12-25T09:46:20.070Z,65.18
2022-12-25T09:48:56.544Z,60.33
2022-12-25T09:51:24.756Z,57.58
2022-12-25T09:53:56.594Z,59.77
2022-12-25T09:56:25.953Z,62.03
2022-12-25T09:58:53.987Z,57.00
2022-12-25T10:01:35.455Z,59.45
2022-12-25T10:04:13.215Z,60.13
2022-12-25T10:06:47.884Z,62.70
2022-12-25T10:09:26.564Z,54.67
2022-12-25T10:12:03.692Z,54.97
2022-12-25T10:14:36.103Z,55.05
2022-12-25T10:17:17.958Z,56.88
2022-12-25T10:19:48.881Z,52.08
2022-12-25T10:22:20.358Z,45.70
2022-12-25T10:24:50.852Z,46.35
2022-12-25T10:27:21.336Z,42.35
2022-12-25T10:29:52.906Z,40.60
2022-12-25T10:32:22.117Z,39.78
2022-12-25T10:34:49.795Z,38.20
2022-12-25T10:37:17.806Z,40.30
2022-12-25T10:39:46.896Z,38.60
2022-12-25T10:42:29.763Z,38.65
2022-12-25T10:45:01.980Z,32.13
2022-12-25T10:47:32.899Z,31.88
2022-12-25T10:50:01.180Z,31.65
2022-12-25T10:52:29.816Z,32.30
2022-12-25T10:54:57.462Z,32.57
2022-12-25T10:57:26.449Z,29.00
2022-12-25T10:59:56.894Z,29.52
2022-12-25T11:02:26.608Z,27.50
2022-12-25T11:05:03.092Z,27.17
2022-12-25T11:07:31.719Z,25.67
2022-12-25T11:10:05.219Z,23.38
2022-12-25T11:12:35.943Z,22.48
2022-12-25T11:15:07.020Z,23.70
2022-12-25T11:17:36.689Z,23.10
2022-12-25T11:20:17.820Z,23.63
2022-12-25T11:22:47.945Z,24.33
2022-12-25T11:25:23.325Z,25.70
2022-12-25T11:27:58.619Z,25.38
2022-12-25T11:30:26.271Z,26.27
2022-12-25T11:32:56.121Z,25.52
2022-12-25T11:35:29.264Z,28.38
2022-12-25T11:37:56.827Z,28.67
2022-12-25T11:40:27.692Z,27.17
2022-12-25T11:43:01.333Z,27.73
2022-12-25T11:45:36.548Z,24.67
2022-12-25T11:48:08.589Z,26.65
2022-12-25T11:50:39.700Z,26.58
2022-12-25T11:53:12.227Z,26.38
2022-12-25T11:55:42.571Z,25.55
2022-12-25T11:58:17.008Z,25.52
2022-12-25T12:00:45.669Z,25.88
2022-12-25T12:03:17.960Z,25.25
2022-12-25T12:05:49.111Z,25.48
2022-12-25T12:08:16.787Z,24.85
2022-12-25T12:10:58.122Z,24.85
2022-12-25T12:13:37.880Z,26.77
2022-12-25T12:16:07.243Z,24.42
2022-12-25T12:18:35.309Z,25.58
2022-12-25T12:21:05.829Z,27.02
2022-12-25T12:23:36.512Z,24.80
2022-12-25T12:26:04.875Z,27.33
2022-12-25T12:28:39.842Z,26.15
2022-12-25T12:31:08.207Z,27.80
2022-12-25T12:33:38.709Z,26.30
2022-12-25T12:36:11.799Z,26.92
2022-12-25T12:38:40.906Z,27.50
2022-12-25T12:41:09.516Z,27.65
2022-12-25T12:43:38.908Z,26.52
2022-12-25T12:46:14.469Z,26.08
2022-12-25T12:48:44.922Z,27.15
2022-12-25T12:51:15.454Z,28.00
2022-12-25T12:53:43.711Z,26.77
2022-12-25T12:56:13.669Z,25.88
2022-12-25T12:58:46.169Z,26.40
2022-12-25T13:01:23.559Z,25.65
2022-12-25T13:04:05.100Z,26.65
2022-12-25T13:06:41.554Z,27.38
2022-12-25T13:09:24.907Z,25.70
2022-12-25T13:11:52.957Z,26.73
2022-12-25T13:14:22.673Z,27.73
2022-12-25T13:16:52.993Z,25.60
2022-12-25T13:19:22.856Z,28.35
2022-12-25T13:21:56.520Z,26.42
2022-12-25T13:24:25.718Z,26.00
2022-12-25T13:26:53.313Z,27.13
2022-12-25T13:29:31.264Z,26.60
2022-12-25T13:31:59.756Z,27.15
2022-12-25T13:34:31.541Z,25.15
2022-12-25T13:37:01.351Z,29.10
2022-12-25T13:39:29.692Z,26.65
2022-12-25T13:42:06.381Z,31.27
2022-12-25T13:44:42.768Z,29.38
2022-12-25T13:47:17.990Z,30.88
2022-12-25T13:49:46.044Z,35.05
2022-12-25T13:52:17.207Z,34.38
2022-12-25T13:54:59.236Z,35.67
2022-12-25T13:57:31.534Z,37.85
2022-12-25T13:59:59.254Z,38.85
2022-12-25T14:02:31.689Z,41.58
2022-12-25T14:04:59.365Z,40.40
2022-12-25T14:07:28.567Z,40.43
2022-12-25T14:09:59.386Z,42.35
2022-12-25T14:12:29.417Z,41.20
2022-12-25T14:14:58.296Z,46.60
2022-12-25T14:17:26.377Z,42.20
2022-12-25T14:20:05.710Z,43.40
2022-12-25T14:22:38.474Z,43.33
2022-12-25T14:25:15.264Z,42.35
2022-12-25T14:27:49.350Z,40.70
2022-12-25T14:30:17.759Z,43.10
2022-12-25T14:32:47.392Z,40.53
2022-12-25T14:35:21.317Z,41.90
2022-12-25T14:37:56.385Z,38.92
2022-12-25T14:40:26.684Z,37.60
2022-12-25T14:42:58.411Z,37.20
2022-12-25T14:45:31.776Z,40.35
2022-12-25T14:48:02.860Z,38.75
2022-12-25T14:50:32.574Z,41.20
2022-12-25T14:53:01.703Z,36.88
2022-12-25T14:55:30.538Z,42.53
2022-12-25T14:57:59.902Z,39.90
2022-12-25T15:00:31.656Z,41.05
2022-12-25T15:03:00.572Z,41.67
2022-12-25T15:05:36.117Z,39.70
2022-12-25T15:08:17.662Z,38.00
2022-12-25T15:11:02.592Z,38.00
2022-12-25T15:13:31.920Z,39.47
2022-12-25T15:16:02.360Z,35.92
2022-12-25T15:18:33.211Z,37.72
2022-12-25T15:21:00.842Z,38.40
2022-12-25T15:23:29.739Z,36.20
2022-12-25T15:25:57.299Z,35.85
2022-12-25T15:28:24.911Z,37.05
2022-12-25T15:30:52.521Z,37.53
2022-12-25T15:33:20.199Z,39.95
2022-12-25T15:35:47.865Z,40.25
2022-12-25T15:38:15.457Z,40.47
2022-12-25T15:40:44.427Z,43.13
2022-12-25T15:43:39.582Z,42.85
2022-12-25T15:46:02.880Z,41.78
2022-12-25T15:48:30.451Z,41.00
2022-12-25T15:50:58.044Z,43.30
2022-12-25T15:53:26.942Z,44.85
2022-12-25T15:55:55.975Z,45.08
2022-12-25T15:58:23.557Z,45.22
2022-12-25T16:00:51.673Z,41.05
2022-12-25T16:03:19.291Z,46.47
2022-12-25T16:05:46.882Z,45.60
2022-12-25T16:08:14.427Z,46.40
2022-12-25T16:10:41.980Z,43.83
2022-12-25T16:13:10.942Z,46.25
2022-12-25T16:15:38.612Z,45.97
2022-12-25T16:18:06.509Z,48.25
2022-12-25T16:20:36.041Z,44.57
2022-12-25T16:23:03.652Z,46.50
2022-12-25T16:25:31.320Z,50.58
2022-12-25T16:27:58.965Z,52.15
2022-12-25T16:30:27.943Z,47.75
2022-12-25T16:32:55.753Z,50.10
2022-12-25T16:35:23.396Z,54.30
2022-12-25T16:37:50.954Z,52.30
2022-12-25T16:40:18.772Z,56.73
2022-12-25T16:42:46.387Z,55.15
2022-12-25T16:45:14.239Z,56.40
2022-12-25T16:47:43.197Z,54.42
2022-12-25T16:50:11.551Z,56.60
2022-12-25T16:52:39.176Z,56.47
2022-12-25T16:55:07.416Z,57.00
2022-12-25T16:57:35.119Z,59.95
2022-12-25T17:00:02.872Z,59.33
2022-12-25T17:02:30.595Z,60.85
2022-12-25T17:05:00.475Z,65.13
2022-12-25T17:07:28.214Z,67.47
2022-12-25T17:09:57.104Z,75.20
2022-12-25T17:12:24.659Z,66.35
2022-12-25T17:14:52.907Z,69.15
2022-12-25T17:17:20.438Z,68.13
2022-12-25T17:19:48.014Z,80.10
2022-12-25T17:22:16.965Z,85.90
2022-12-25T17:24:44.563Z,82.90
2022-12-25T17:27:12.188Z,82.30
2022-12-25T17:29:40.050Z,78.68
2022-12-25T17:32:08.428Z,75.20
2022-12-25T17:34:36.624Z,76.20
2022-12-25T17:37:04.288Z,75.38
2022-12-25T17:39:33.417Z,78.38
2022-12-25T17:42:01.054Z,75.97
2022-12-25T17:44:28.640Z,77.25
2022-12-25T17:46:56.304Z,74.00
2022-12-25T17:49:24.068Z,74.97
2022-12-25T17:51:51.752Z,78.32
2022-12-25T17:54:19.386Z,79.75
2022-12-25T17:56:49.437Z,72.28
2022-12-25T17:59:19.162Z,79.25
2022-12-25T18:01:49.122Z,79.30
2022-12-25T18:04:17.104Z,81.38
2022-12-25T18:06:44.759Z,86.10
2022-12-25T18:09:13.355Z,85.13
2022-12-25T18:11:42.717Z,81.50
2022-12-25T18:14:15.432Z,84.40
2022-12-25T18:16:44.753Z,91.80
2022-12-25T18:19:13.459Z,91.68
2022-12-25T18:21:41.117Z,89.57
2022-12-25T18:24:09.350Z,94.05
2022-12-25T18:26:37.264Z,89.13
2022-12-25T18:29:05.033Z,93.25
2022-12-25T18:31:34.020Z,85.68
2022-12-25T18:34:01.619Z,84.35
2022-12-25T18:36:30.235Z,86.28
2022-12-25T18:38:58.584Z,88.93
2022-12-25T18:41:27.943Z,83.75
2022-12-25T18:43:56.161Z,88.15
2022-12-25T18:46:25.320Z,82.05
2022-12-25T18:48:55.114Z,84.75
2022-12-25T18:51:22.932Z,77.43
2022-12-25T18:53:50.942Z,79.82
2022-12-25T18:56:18.914Z,82.93
2022-12-25T18:58:47.159Z,82.03
2022-12-25T19:01:17.056Z,72.97
2022-12-25T19:03:46.153Z,76.45
2022-12-25T19:06:19.137Z,76.70
2022-12-25T19:08:46.884Z,78.53
2022-12-25T19:11:14.633Z,78.93
2022-12-25T19:13:42.225Z,74.35
2022-12-25T19:16:09.932Z,76.20
2022-12-25T19:18:38.303Z,68.38
2022-12-25T19:21:08.366Z,74.83
2022-12-25T19:23:38.352Z,67.13
2022-12-25T19:26:06.466Z,63.75
2022-12-25T19:28:34.108Z,75.43
2022-12-25T19:31:02.430Z,81.32
2022-12-25T19:33:31.870Z,77.72
2022-12-25T19:36:00.558Z,82.80
2022-12-25T19:38:28.193Z,87.90
2022-12-25T19:41:03.095Z,79.55
2022-12-25T19:43:31.999Z,86.72
2022-12-25T19:45:59.897Z,85.70
2022-12-25T19:48:27.667Z,97.55
2022-12-25T19:50:55.583Z,78.07
2022-12-25T19:53:24.099Z,80.65
2022-12-25T19:55:52.264Z,79.95
2022-12-25T19:58:21.638Z,85.53
2022-12-25T20:00:58.099Z,89.28
2022-12-25T20:03:26.033Z,81.07
2022-12-25T20:05:53.738Z,80.55
2022-12-25T20:08:21.337Z,82.20
2022-12-25T20:10:49.185Z,83.20
2022-12-25T20:13:17.011Z,81.70
2022-12-25T20:15:46.196Z,79.22
2022-12-25T20:18:13.966Z,74.47
2022-12-25T20:20:42.831Z,75.75
2022-12-25T20:23:10.738Z,68.70
2022-12-25T20:25:40.426Z,70.18
2022-12-25T20:28:08.144Z,66.38
2022-12-25T20:30:39.281Z,61.67
2022-12-25T20:33:08.326Z,66.82
2022-12-25T20:35:35.987Z,61.85
2022-12-25T20:38:03.623Z,54.15
2022-12-25T20:40:34.653Z,50.65
2022-12-25T20:43:14.635Z,46.70
2022-12-25T20:45:42.575Z,36.33
2022-12-25T20:48:11.559Z,35.38
2022-12-25T20:50:39.117Z,35.03
2022-12-25T20:53:06.757Z,32.50
2022-12-25T20:55:34.413Z,33.65
2022-12-25T20:58:01.949Z,32.20
2022-12-25T21:00:29.567Z,33.13
2022-12-25T21:02:57.338Z,33.72
2022-12-25T21:05:26.394Z,34.67
2022-12-25T21:07:53.995Z,35.40
2022-12-25T21:10:21.621Z,36.95
2022-12-25T21:12:49.269Z,38.95
2022-12-25T21:15:16.988Z,33.40
2022-12-25T21:17:44.679Z,41.33
2022-12-25T21:20:12.553Z,40.65
2022-12-25T21:22:42.027Z,44.65
2022-12-25T21:25:10.544Z,41.80
2022-12-25T21:27:38.161Z,45.85
2022-12-25T21:30:14.502Z,45.95
2022-12-25T21:33:00.922Z,45.58
2022-12-25T21:35:28.774Z,46.70
2022-12-25T21:37:57.728Z,48.28
2022-12-25T21:40:25.306Z,47.35
2022-12-25T21:42:53.109Z,46.83
2022-12-25T21:45:20.674Z,52.63
2022-12-25T21:47:59.803Z,47.75
2022-12-25T21:50:45.847Z,46.33
2022-12-25T21:53:17.957Z,57.30
2022-12-25T21:55:56.889Z,52.08
2022-12-25T21:58:25.028Z,48.85
2022-12-25T22:00:52.721Z,45.17
2022-12-25T22:03:20.399Z,56.72
2022-12-25T22:06:05.639Z,52.65
2022-12-25T22:08:34.713Z,62.23
2022-12-25T22:11:04.254Z,60.42
2022-12-25T22:13:49.391Z,60.00
2022-12-25T22:16:34.550Z,58.30
2022-12-25T22:19:19.982Z,57.53
2022-12-25T22:21:47.628Z,57.05
2022-12-25T22:24:16.616Z,56.60
2022-12-25T22:26:45.861Z,60.45
2022-12-25T22:29:13.462Z,62.33
2022-12-25T22:31:46.642Z,62.20
2022-12-25T22:34:16.259Z,69.40
2022-12-25T22:36:44.078Z,66.05
2022-12-25T22:39:11.743Z,69.70
2022-12-25T22:41:40.699Z,64.20
2022-12-25T22:44:17.572Z,73.97
2022-12-25T22:46:45.903Z,67.55
2022-12-25T22:49:15.474Z,73.47
2022-12-25T22:51:43.227Z,68.68
2022-12-25T22:54:13.028Z,66.03
2022-12-25T22:56:42.027Z,67.73
2022-12-25T22:59:10.199Z,70.40
2022-12-25T23:01:38.085Z,73.15
2022-12-25T23:04:06.432Z,68.70
2022-12-25T23:06:34.206Z,70.40
2022-12-25T23:09:02.030Z,72.45
2022-12-25T23:11:29.584Z,64.67
2022-12-25T23:14:16.290Z,64.13
2022-12-25T23:16:43.883Z,52.27
2022-12-25T23:19:41.403Z,51.43
2022-12-25T23:22:28.315Z,45.70
2022-12-25T23:25:13.649Z,43.85
2022-12-25T23:27:41.308Z,42.78
2022-12-25T23:30:11.497Z,42.60
2022-12-25T23:32:39.481Z,41.85
2022-12-25T23:35:08.321Z,35.85
2022-12-25T23:37:35.965Z,40.23
2022-12-25T23:40:03.560Z,39.05
2022-12-25T23:42:31.185Z,37.88
2022-12-25T23:44:58.789Z,37.97
2022-12-25T23:47:27.790Z,45.17
2022-12-25T23:49:55.501Z,45.30
2022-12-25T23:52:23.145Z,43.67
2022-12-25T23:54:50.815Z,50.03
2022-12-25T23:57:18.452Z,47.53
2022-12-25T23:59:46.198Z,50.80
